createdAt,value
2017-02-09T00:00:45.913Z,1019.37
2017-02-09T00:01:45.888Z,1019.38
2017-02-09T00:02:45.867Z,1019.36
2017-02-09T00:03:45.844Z,1019.36
2017-02-09T00:04:45.847Z,1019.34
2017-02-09T00:05:45.800Z,1019.33
2017-02-09T00:06:45.777Z,1019.36
2017-02-09T00:07:45.753Z,1019.34
2017-02-09T00:08:45.730Z,1019.38
2017-02-09T00:09:45.707Z,1019.37
2017-02-09T00:10:45.685Z,1019.42
2017-02-09T00:11:45.662Z,1019.43
2017-02-09T00:12:45.638Z,1019.43
2017-02-09T00:13:45.614Z,1019.39
2017-02-09T00:14:45.593Z,1019.37
2017-02-09T00:15:45.570Z,1019.38
2017-02-09T00:16:45.547Z,1019.4
2017-02-09T00:17:45.525Z,1019.34
2017-02-09T00:18:45.703Z,1019.4
2017-02-09T00:19:45.477Z,1019.42
2017-02-09T00:20:45.455Z,1019.42
2017-02-09T00:21:45.433Z,1019.42
2017-02-09T00:22:45.413Z,1019.43
2017-02-09T00:23:45.386Z,1019.46
2017-02-09T00:24:45.364Z,1019.5
2017-02-09T00:25:45.341Z,1019.49
2017-02-09T00:26:45.320Z,1019.44
2017-02-09T00:27:45.296Z,1019.43
2017-02-09T00:28:45.278Z,1019.49
2017-02-09T00:29:45.248Z,1019.5
2017-02-09T00:30:45.227Z,1019.5
2017-02-09T00:31:45.206Z,1019.48
2017-02-09T00:32:45.183Z,1019.5
2017-02-09T00:33:45.159Z,1019.54
2017-02-09T00:34:45.134Z,1019.51
2017-02-09T00:35:45.110Z,1019.53
2017-02-09T00:36:45.088Z,1019.47
2017-02-09T00:37:45.067Z,1019.46
2017-02-09T00:38:45.042Z,1019.45
2017-02-09T00:39:45.021Z,1019.46
2017-02-09T00:40:44.998Z,1019.48
2017-02-09T00:41:44.972Z,1019.49
2017-02-09T00:42:44.952Z,1019.51
2017-02-09T00:43:44.927Z,1019.54
2017-02-09T00:44:44.911Z,1019.53
2017-02-09T00:45:44.880Z,1019.44
2017-02-09T00:46:44.857Z,1019.44
2017-02-09T00:47:44.834Z,1019.47
2017-02-09T00:48:44.814Z,1019.45
2017-02-09T00:49:44.792Z,1019.49
2017-02-09T00:50:44.765Z,1019.47
2017-02-09T00:51:44.742Z,1019.53
2017-02-09T00:52:44.719Z,1019.53
2017-02-09T00:53:44.696Z,1019.51
2017-02-09T00:54:44.676Z,1019.52
2017-02-09T00:55:44.650Z,1019.51
2017-02-09T00:56:44.628Z,1019.54
2017-02-09T00:57:44.605Z,1019.54
2017-02-09T00:58:44.581Z,1019.52
2017-02-09T00:59:44.557Z,1019.57
2017-02-09T01:00:44.535Z,1019.59
2017-02-09T01:01:44.515Z,1019.6
2017-02-09T01:02:44.488Z,1019.62
2017-02-09T01:03:44.463Z,1019.65
2017-02-09T01:04:44.442Z,1019.65
2017-02-09T01:05:44.417Z,1019.71
2017-02-09T01:06:44.397Z,1019.71
2017-02-09T01:07:44.375Z,1019.72
2017-02-09T01:08:44.351Z,1019.7
2017-02-09T01:09:44.328Z,1019.71
2017-02-09T01:10:44.306Z,1019.64
2017-02-09T01:11:44.280Z,1019.69
2017-02-09T01:12:44.258Z,1019.63
2017-02-09T01:13:44.235Z,1019.63
2017-02-09T01:14:44.212Z,1019.62
2017-02-09T01:15:44.190Z,1019.62
2017-02-09T01:16:44.167Z,1019.61
2017-02-09T01:17:44.146Z,1019.64
2017-02-09T01:18:44.128Z,1019.65
2017-02-09T01:19:44.103Z,1019.66
2017-02-09T01:20:44.073Z,1019.62
2017-02-09T01:21:44.050Z,1019.62
2017-02-09T01:22:44.046Z,1019.68
2017-02-09T01:23:44.007Z,1019.66
2017-02-09T01:24:43.983Z,1019.73
2017-02-09T01:25:43.957Z,1019.68
2017-02-09T01:26:43.935Z,1019.74
2017-02-09T01:27:43.912Z,1019.76
2017-02-09T01:28:43.888Z,1019.71
2017-02-09T01:29:43.864Z,1019.71
2017-02-09T01:30:43.842Z,1019.74
2017-02-09T01:31:43.819Z,1019.72
2017-02-09T01:32:43.797Z,1019.7
2017-02-09T01:33:43.775Z,1019.69
2017-02-09T01:34:43.750Z,1019.7
2017-02-09T01:35:43.727Z,1019.67
2017-02-09T01:36:43.702Z,1019.67
2017-02-09T01:37:43.680Z,1019.64
2017-02-09T01:38:43.658Z,1019.69
2017-02-09T01:39:43.634Z,1019.62
2017-02-09T01:40:43.612Z,1019.62
2017-02-09T01:41:43.588Z,1019.67
2017-02-09T01:42:43.565Z,1019.69
2017-02-09T01:43:43.545Z,1019.71
2017-02-09T01:44:43.520Z,1019.69
2017-02-09T01:45:43.496Z,1019.69
2017-02-09T01:46:43.473Z,1019.71
2017-02-09T01:47:43.453Z,1019.65
2017-02-09T01:48:43.430Z,1019.65
2017-02-09T01:49:43.403Z,1019.66
2017-02-09T01:50:43.382Z,1019.62
2017-02-09T01:51:43.359Z,1019.6
2017-02-09T01:52:43.335Z,1019.6
2017-02-09T01:53:43.311Z,1019.63
2017-02-09T01:54:43.287Z,1019.64
2017-02-09T01:55:43.265Z,1019.68
2017-02-09T01:56:43.240Z,1019.66
2017-02-09T01:57:43.218Z,1019.68
2017-02-09T01:58:43.195Z,1019.7
2017-02-09T01:59:43.174Z,1019.71
2017-02-09T02:00:43.148Z,1019.72
2017-02-09T02:01:43.130Z,1019.71
2017-02-09T02:02:43.102Z,1019.73
2017-02-09T02:03:43.129Z,1019.71
2017-02-09T02:04:43.055Z,1019.72
2017-02-09T02:05:43.033Z,1019.74
2017-02-09T02:06:43.008Z,1019.75
2017-02-09T02:07:42.984Z,1019.72
2017-02-09T02:08:42.963Z,1019.73
2017-02-09T02:09:42.939Z,1019.73
2017-02-09T02:10:42.917Z,1019.71
2017-02-09T02:11:42.890Z,1019.76
2017-02-09T02:12:42.869Z,1019.7
2017-02-09T02:13:42.845Z,1019.75
2017-02-09T02:14:42.821Z,1019.71
2017-02-09T02:15:42.799Z,1019.73
2017-02-09T02:16:42.776Z,1019.76
2017-02-09T02:17:42.753Z,1019.74
2017-02-09T02:18:42.932Z,1019.74
2017-02-09T02:19:42.710Z,1019.7
2017-02-09T02:20:42.683Z,1019.69
2017-02-09T02:21:42.664Z,1019.69
2017-02-09T02:22:42.637Z,1019.7
2017-02-09T02:23:42.614Z,1019.71
2017-02-09T02:24:42.589Z,1019.73
2017-02-09T02:25:42.566Z,1019.75
2017-02-09T02:26:42.542Z,1019.73
2017-02-09T02:27:42.518Z,1019.74
2017-02-09T02:28:42.496Z,1019.72
2017-02-09T02:29:42.472Z,1019.72
2017-02-09T02:30:42.449Z,1019.74
2017-02-09T02:31:42.425Z,1019.73
2017-02-09T02:32:42.403Z,1019.73
2017-02-09T02:33:42.379Z,1019.71
2017-02-09T02:34:42.356Z,1019.72
2017-02-09T02:35:42.334Z,1019.73
2017-02-09T02:36:42.308Z,1019.77
2017-02-09T02:37:42.285Z,1019.78
2017-02-09T02:38:42.261Z,1019.76
2017-02-09T02:39:42.238Z,1019.79
2017-02-09T02:40:42.215Z,1019.79
2017-02-09T02:41:42.192Z,1019.76
2017-02-09T02:42:42.168Z,1019.78
2017-02-09T02:43:42.143Z,1019.75
2017-02-09T02:44:42.122Z,1019.71
2017-02-09T02:45:42.099Z,1019.75
2017-02-09T02:46:42.073Z,1019.77
2017-02-09T02:47:42.051Z,1019.77
2017-02-09T02:48:42.028Z,1019.79
2017-02-09T02:49:42.002Z,1019.8
2017-02-09T02:50:41.980Z,1019.8
2017-02-09T02:51:41.958Z,1019.82
2017-02-09T02:52:41.934Z,1019.8
2017-02-09T02:53:41.909Z,1019.82
2017-02-09T02:54:41.885Z,1019.78
2017-02-09T02:55:41.868Z,1019.85
2017-02-09T02:56:41.839Z,1019.87
2017-02-09T02:57:41.814Z,1019.81
2017-02-09T02:58:41.791Z,1019.81
2017-02-09T02:59:41.770Z,1019.81
2017-02-09T03:00:41.743Z,1019.78
2017-02-09T03:01:41.721Z,1019.78
2017-02-09T03:02:41.698Z,1019.8
2017-02-09T03:03:41.674Z,1019.82
2017-02-09T03:04:41.650Z,1019.81
2017-02-09T03:05:41.626Z,1019.8
2017-02-09T03:06:41.608Z,1019.8
2017-02-09T03:07:41.581Z,1019.83
2017-02-09T03:08:41.570Z,1019.8
2017-02-09T03:09:41.534Z,1019.76
2017-02-09T03:10:41.512Z,1019.77
2017-02-09T03:11:41.484Z,1019.81
2017-02-09T03:12:41.461Z,1019.78
2017-02-09T03:13:41.437Z,1019.79
2017-02-09T03:14:41.414Z,1019.8
2017-02-09T03:15:41.391Z,1019.82
2017-02-09T03:16:41.366Z,1019.86
2017-02-09T03:17:41.344Z,1019.83
2017-02-09T03:18:41.324Z,1019.85
2017-02-09T03:19:41.295Z,1019.82
2017-02-09T03:20:41.323Z,1019.77
2017-02-09T03:21:41.251Z,1019.78
2017-02-09T03:22:41.223Z,1019.74
2017-02-09T03:23:41.253Z,1019.76
2017-02-09T03:24:41.180Z,1019.78
2017-02-09T03:25:41.205Z,1019.78
2017-02-09T03:26:41.131Z,1019.77
2017-02-09T03:27:41.108Z,1019.79
2017-02-09T03:28:41.084Z,1019.78
2017-02-09T03:29:41.063Z,1019.81
2017-02-09T03:30:41.035Z,1019.77
2017-02-09T03:31:41.034Z,1019.73
2017-02-09T03:32:40.990Z,1019.75
2017-02-09T03:33:40.969Z,1019.75
2017-02-09T03:34:40.946Z,1019.77
2017-02-09T03:35:40.918Z,1019.77
2017-02-09T03:36:40.898Z,1019.82
2017-02-09T03:37:40.871Z,1019.84
2017-02-09T03:38:40.850Z,1019.87
2017-02-09T03:39:40.823Z,1019.86
2017-02-09T03:40:40.798Z,1019.88
2017-02-09T03:41:40.774Z,1019.84
2017-02-09T03:42:40.751Z,1019.88
2017-02-09T03:43:40.728Z,1019.87
2017-02-09T03:44:40.703Z,1019.83
2017-02-09T03:45:40.682Z,1019.81
2017-02-09T03:46:40.657Z,1019.83
2017-02-09T03:47:40.632Z,1019.84
2017-02-09T03:48:40.611Z,1019.87
2017-02-09T03:49:40.585Z,1019.9
2017-02-09T03:50:40.562Z,1019.84
2017-02-09T03:51:40.537Z,1019.87
2017-02-09T03:52:40.514Z,1019.86
2017-02-09T03:53:40.490Z,1019.84
2017-02-09T03:54:40.471Z,1019.87
2017-02-09T03:55:40.442Z,1019.85
2017-02-09T03:56:40.420Z,1019.88
2017-02-09T03:57:40.398Z,1019.86
2017-02-09T03:58:40.373Z,1019.93
2017-02-09T03:59:40.348Z,1019.96
2017-02-09T04:00:40.325Z,1019.92
2017-02-09T04:01:40.304Z,1019.96
2017-02-09T04:02:40.280Z,1019.96
2017-02-09T04:03:40.254Z,1019.97
2017-02-09T04:04:40.229Z,1019.99
2017-02-09T04:05:40.204Z,1019.97
2017-02-09T04:06:40.180Z,1020.03
2017-02-09T04:07:40.177Z,1019.98
2017-02-09T04:08:40.138Z,1020
2017-02-09T04:09:40.111Z,1020
2017-02-09T04:10:40.114Z,1020.02
2017-02-09T04:11:40.063Z,1020.02
2017-02-09T04:12:40.039Z,1020.01
2017-02-09T04:13:40.014Z,1020.01
2017-02-09T04:14:39.989Z,1020.03
2017-02-09T04:15:39.967Z,1020.01
2017-02-09T04:16:39.943Z,1020.01
2017-02-09T04:17:39.919Z,1020.08
2017-02-09T04:18:40.097Z,1020.04
2017-02-09T04:19:39.872Z,1020.05
2017-02-09T04:20:39.848Z,1020.03
2017-02-09T04:21:39.823Z,1020.02
2017-02-09T04:22:39.800Z,1020.11
2017-02-09T04:23:39.776Z,1020.09
2017-02-09T04:24:39.751Z,1020.08
2017-02-09T04:25:39.728Z,1020.1
2017-02-09T04:26:39.708Z,1020.08
2017-02-09T04:27:39.682Z,1020.13
2017-02-09T04:28:39.655Z,1020.1
2017-02-09T04:29:39.633Z,1020.06
2017-02-09T04:30:39.609Z,1020.07
2017-02-09T04:31:39.586Z,1020.06
2017-02-09T04:32:39.559Z,1020.09
2017-02-09T04:33:39.537Z,1020.07
2017-02-09T04:34:39.514Z,1020.02
2017-02-09T04:35:39.492Z,1020.07
2017-02-09T04:36:39.469Z,1019.99
2017-02-09T04:37:39.444Z,1020.02
2017-02-09T04:38:39.418Z,1020.07
2017-02-09T04:39:39.392Z,1020.05
2017-02-09T04:40:39.371Z,1020.1
2017-02-09T04:41:39.345Z,1020.13
2017-02-09T04:42:39.322Z,1020.17
2017-02-09T04:43:39.297Z,1020.11
2017-02-09T04:44:39.273Z,1020.12
2017-02-09T04:45:39.253Z,1020.17
2017-02-09T04:46:39.225Z,1020.13
2017-02-09T04:47:39.201Z,1020.17
2017-02-09T04:48:39.177Z,1020.15
2017-02-09T04:49:39.153Z,1020.16
2017-02-09T04:50:39.131Z,1020.16
2017-02-09T04:51:39.106Z,1020.18
2017-02-09T04:52:39.084Z,1020.15
2017-02-09T04:53:39.059Z,1020.17
2017-02-09T04:54:39.036Z,1020.12
2017-02-09T04:55:39.013Z,1020.12
2017-02-09T04:56:38.987Z,1020.15
2017-02-09T04:57:38.963Z,1020.17
2017-02-09T04:58:38.944Z,1020.16
2017-02-09T04:59:38.915Z,1020.15
2017-02-09T05:00:38.891Z,1020.15
2017-02-09T05:01:38.868Z,1020.13
2017-02-09T05:02:38.849Z,1020.1
2017-02-09T05:03:38.820Z,1020.11
2017-02-09T05:04:38.796Z,1020.15
2017-02-09T05:05:38.773Z,1020.11
2017-02-09T05:06:38.746Z,1020.13
2017-02-09T05:07:38.724Z,1020.09
2017-02-09T05:08:38.700Z,1020.11
2017-02-09T05:09:38.676Z,1020.09
2017-02-09T05:10:38.655Z,1020.07
2017-02-09T05:11:38.628Z,1020.09
2017-02-09T05:12:38.607Z,1020.1
2017-02-09T05:13:38.580Z,1020.12
2017-02-09T05:14:38.555Z,1020.15
2017-02-09T05:15:38.533Z,1020.12
2017-02-09T05:16:38.508Z,1020.15
2017-02-09T05:17:38.483Z,1020.18
2017-02-09T05:18:38.459Z,1020.19
2017-02-09T05:19:38.435Z,1020.19
2017-02-09T05:20:38.411Z,1020.2
2017-02-09T05:21:38.386Z,1020.2
2017-02-09T05:22:38.361Z,1020.2
2017-02-09T05:23:38.337Z,1020.18
2017-02-09T05:24:38.315Z,1020.18
2017-02-09T05:25:38.291Z,1020.18
2017-02-09T05:26:38.266Z,1020.08
2017-02-09T05:27:38.240Z,1020.06
2017-02-09T05:28:38.218Z,1020.05
2017-02-09T05:29:38.198Z,1020.1
2017-02-09T05:30:38.167Z,1020.12
2017-02-09T05:31:38.148Z,1020.1
2017-02-09T05:32:38.121Z,1020.13
2017-02-09T05:33:38.098Z,1020.13
2017-02-09T05:34:38.073Z,1020.13
2017-02-09T05:35:38.046Z,1020.17
2017-02-09T05:36:38.024Z,1020.12
2017-02-09T05:37:38.001Z,1020.15
2017-02-09T05:38:37.976Z,1020.1
2017-02-09T05:39:37.956Z,1020.17
2017-02-09T05:40:37.928Z,1020.15
2017-02-09T05:41:37.902Z,1020.14
2017-02-09T05:42:37.878Z,1020.18
2017-02-09T05:43:37.855Z,1020.12
2017-02-09T05:44:37.830Z,1020.15
2017-02-09T05:45:37.807Z,1020.1
2017-02-09T05:46:37.783Z,1020.12
2017-02-09T05:47:37.759Z,1020.08
2017-02-09T05:48:37.737Z,1020.08
2017-02-09T05:49:37.762Z,1020.08
2017-02-09T05:50:37.685Z,1020.12
2017-02-09T05:51:37.662Z,1020.08
2017-02-09T05:52:37.637Z,1020.09
2017-02-09T05:53:37.612Z,1020.11
2017-02-09T05:54:37.593Z,1020.11
2017-02-09T05:55:37.565Z,1020.09
2017-02-09T05:56:37.538Z,1020.14
2017-02-09T05:57:37.516Z,1020.21
2017-02-09T05:58:37.492Z,1020.14
2017-02-09T05:59:37.466Z,1020.16
2017-02-09T06:00:37.443Z,1020.15
2017-02-09T06:01:37.419Z,1020.17
2017-02-09T06:02:37.396Z,1020.24
2017-02-09T06:03:37.372Z,1020.21
2017-02-09T06:04:37.345Z,1020.17
2017-02-09T06:05:37.324Z,1020.16
2017-02-09T06:06:37.298Z,1020.18
2017-02-09T06:07:37.275Z,1020.24
2017-02-09T06:08:37.253Z,1020.18
2017-02-09T06:09:37.226Z,1020.18
2017-02-09T06:10:37.202Z,1020.21
2017-02-09T06:11:37.179Z,1020.18
2017-02-09T06:12:37.154Z,1020.17
2017-02-09T06:13:37.130Z,1020.18
2017-02-09T06:14:37.103Z,1020.14
2017-02-09T06:15:37.085Z,1020.15
2017-02-09T06:16:37.057Z,1020.14
2017-02-09T06:17:37.031Z,1020.21
2017-02-09T06:18:37.008Z,1020.18
2017-02-09T06:19:36.985Z,1020.19
2017-02-09T06:20:36.960Z,1020.27
2017-02-09T06:21:36.934Z,1020.28
2017-02-09T06:22:36.913Z,1020.26
2017-02-09T06:23:36.886Z,1020.31
2017-02-09T06:24:36.863Z,1020.29
2017-02-09T06:25:36.838Z,1020.26
2017-02-09T06:26:36.814Z,1020.29
2017-02-09T06:27:36.790Z,1020.27
2017-02-09T06:28:36.767Z,1020.31
2017-02-09T06:29:36.744Z,1020.28
2017-02-09T06:30:36.718Z,1020.29
2017-02-09T06:31:36.695Z,1020.28
2017-02-09T06:32:36.671Z,1020.29
2017-02-09T06:33:36.646Z,1020.27
2017-02-09T06:34:36.621Z,1020.28
2017-02-09T06:35:36.598Z,1020.27
2017-02-09T06:36:36.572Z,1020.29
2017-02-09T06:37:36.551Z,1020.3
2017-02-09T06:38:36.525Z,1020.32
2017-02-09T06:39:36.500Z,1020.29
2017-02-09T06:40:36.474Z,1020.33
2017-02-09T06:41:36.452Z,1020.34
2017-02-09T06:42:36.427Z,1020.33
2017-02-09T06:43:36.402Z,1020.35
2017-02-09T06:44:36.377Z,1020.37
2017-02-09T06:45:36.354Z,1020.33
2017-02-09T06:46:36.331Z,1020.41
2017-02-09T06:47:36.304Z,1020.39
2017-02-09T06:48:36.281Z,1020.38
2017-02-09T06:49:36.258Z,1020.4
2017-02-09T06:50:36.234Z,1020.39
2017-02-09T06:51:36.209Z,1020.38
2017-02-09T06:52:36.185Z,1020.37
2017-02-09T06:53:36.158Z,1020.37
2017-02-09T06:54:36.136Z,1020.35
2017-02-09T06:55:36.111Z,1020.34
2017-02-09T06:56:36.086Z,1020.35
2017-02-09T06:57:36.063Z,1020.34
2017-02-09T06:58:36.042Z,1020.38
2017-02-09T06:59:36.015Z,1020.36
2017-02-09T07:00:35.989Z,1020.4
2017-02-09T07:01:35.964Z,1020.39
2017-02-09T07:02:35.940Z,1020.42
2017-02-09T07:03:35.916Z,1020.4
2017-02-09T07:04:35.895Z,1020.36
2017-02-09T07:05:35.865Z,1020.38
2017-02-09T07:06:35.844Z,1020.4
2017-02-09T07:07:35.818Z,1020.38
2017-02-09T07:08:35.795Z,1020.41
2017-02-09T07:09:35.772Z,1020.37
2017-02-09T07:10:35.743Z,1020.39
2017-02-09T07:11:35.720Z,1020.39
2017-02-09T07:12:35.695Z,1020.41
2017-02-09T07:13:35.672Z,1020.43
2017-02-09T07:14:35.648Z,1020.41
2017-02-09T07:15:35.622Z,1020.44
2017-02-09T07:16:35.598Z,1020.45
2017-02-09T07:17:35.575Z,1020.44
2017-02-09T07:18:35.549Z,1020.45
2017-02-09T07:19:35.528Z,1020.43
2017-02-09T07:20:35.503Z,1020.43
2017-02-09T07:21:35.478Z,1020.4
2017-02-09T07:22:35.453Z,1020.42
2017-02-09T07:23:35.428Z,1020.46
2017-02-09T07:24:35.403Z,1020.48
2017-02-09T07:25:35.381Z,1020.46
2017-02-09T07:26:35.357Z,1020.38
2017-02-09T07:27:35.335Z,1020.41
2017-02-09T07:28:35.307Z,1020.42
2017-02-09T07:29:35.281Z,1020.48
2017-02-09T07:30:35.258Z,1020.49
2017-02-09T07:31:35.234Z,1020.46
2017-02-09T07:32:35.210Z,1020.51
2017-02-09T07:33:35.187Z,1020.5
2017-02-09T07:34:35.162Z,1020.49
2017-02-09T07:35:35.138Z,1020.43
2017-02-09T07:36:35.112Z,1020.45
2017-02-09T07:37:35.090Z,1020.45
2017-02-09T07:38:35.068Z,1020.44
2017-02-09T07:39:35.041Z,1020.43
2017-02-09T07:40:35.018Z,1020.39
2017-02-09T07:41:34.994Z,1020.4
2017-02-09T07:42:34.969Z,1020.34
2017-02-09T07:43:34.945Z,1020.36
2017-02-09T07:44:34.921Z,1020.39
2017-02-09T07:45:34.899Z,1020.38
2017-02-09T07:46:34.875Z,1020.37
2017-02-09T07:47:34.849Z,1020.41
2017-02-09T07:48:34.824Z,1020.43
2017-02-09T07:49:34.799Z,1020.43
2017-02-09T07:50:34.774Z,1020.43
2017-02-09T07:51:34.752Z,1020.43
2017-02-09T07:52:34.731Z,1020.41
2017-02-09T07:53:34.701Z,1020.41
2017-02-09T07:54:34.680Z,1020.45
2017-02-09T07:55:34.657Z,1020.44
2017-02-09T07:56:34.631Z,1020.47
2017-02-09T07:57:34.607Z,1020.46
2017-02-09T07:58:34.583Z,1020.48
2017-02-09T07:59:34.561Z,1020.54
2017-02-09T08:00:34.535Z,1020.57
2017-02-09T08:01:34.510Z,1020.6
2017-02-09T08:02:34.489Z,1020.55
2017-02-09T08:03:34.468Z,1020.57
2017-02-09T08:04:34.441Z,1020.58
2017-02-09T08:05:34.425Z,1020.59
2017-02-09T08:06:34.394Z,1020.62
2017-02-09T08:07:34.398Z,1020.6
2017-02-09T08:08:34.346Z,1020.56
2017-02-09T08:09:34.322Z,1020.58
2017-02-09T08:10:34.299Z,1020.58
2017-02-09T08:11:34.274Z,1020.61
2017-02-09T08:12:34.251Z,1020.55
2017-02-09T08:13:34.228Z,1020.55
2017-02-09T08:14:34.203Z,1020.61
2017-02-09T08:15:34.180Z,1020.64
2017-02-09T08:16:34.158Z,1020.56
2017-02-09T08:17:34.132Z,1020.59
2017-02-09T08:18:34.108Z,1020.57
2017-02-09T08:19:34.288Z,1020.52
2017-02-09T08:20:34.061Z,1020.58
2017-02-09T08:21:34.036Z,1020.57
2017-02-09T08:22:34.015Z,1020.56
2017-02-09T08:23:33.991Z,1020.58
2017-02-09T08:24:33.966Z,1020.54
2017-02-09T08:25:33.942Z,1020.6
2017-02-09T08:26:33.922Z,1020.61
2017-02-09T08:27:33.895Z,1020.6
2017-02-09T08:28:33.872Z,1020.56
2017-02-09T08:29:33.847Z,1020.62
2017-02-09T08:30:33.824Z,1020.55
2017-02-09T08:31:33.802Z,1020.56
2017-02-09T08:32:33.778Z,1020.56
2017-02-09T08:33:33.754Z,1020.52
2017-02-09T08:34:33.732Z,1020.51
2017-02-09T08:35:33.707Z,1020.58
2017-02-09T08:36:33.688Z,1020.54
2017-02-09T08:37:33.659Z,1020.47
2017-02-09T08:38:33.636Z,1020.49
2017-02-09T08:39:33.617Z,1020.56
2017-02-09T08:40:33.590Z,1020.51
2017-02-09T08:41:33.570Z,1020.53
2017-02-09T08:42:33.544Z,1020.52
2017-02-09T08:43:33.519Z,1020.49
2017-02-09T08:44:33.494Z,1020.46
2017-02-09T08:45:33.472Z,1020.44
2017-02-09T08:46:33.448Z,1020.44
2017-02-09T08:47:33.435Z,1020.44
2017-02-09T08:48:33.405Z,1020.44
2017-02-09T08:49:33.379Z,1020.44
2017-02-09T08:50:33.356Z,1020.42
2017-02-09T08:51:33.330Z,1020.47
2017-02-09T08:52:33.307Z,1020.49
2017-02-09T08:53:33.284Z,1020.47
2017-02-09T08:54:33.261Z,1020.44
2017-02-09T08:55:33.238Z,1020.43
2017-02-09T08:56:33.216Z,1020.45
2017-02-09T08:57:33.190Z,1020.43
2017-02-09T08:58:33.167Z,1020.43
2017-02-09T08:59:33.145Z,1020.42
2017-02-09T09:00:33.121Z,1020.45
2017-02-09T09:01:33.103Z,1020.42
2017-02-09T09:02:33.074Z,1020.39
2017-02-09T09:03:33.053Z,1020.4
2017-02-09T09:04:33.027Z,1020.37
2017-02-09T09:05:33.004Z,1020.38
2017-02-09T09:06:32.983Z,1020.39
2017-02-09T09:07:32.959Z,1020.42
2017-02-09T09:08:32.935Z,1020.39
2017-02-09T09:09:32.913Z,1020.4
2017-02-09T09:10:32.891Z,1020.39
2017-02-09T09:11:32.867Z,1020.4
2017-02-09T09:12:32.844Z,1020.39
2017-02-09T09:13:32.820Z,1020.42
2017-02-09T09:14:32.798Z,1020.38
2017-02-09T09:15:32.774Z,1020.35
2017-02-09T09:16:32.755Z,1020.37
2017-02-09T09:17:32.728Z,1020.35
2017-02-09T09:18:32.707Z,1020.34
2017-02-09T09:19:32.685Z,1020.35
2017-02-09T09:20:32.660Z,1020.34
2017-02-09T09:21:32.639Z,1020.34
2017-02-09T09:22:32.614Z,1020.35
2017-02-09T09:23:32.590Z,1020.32
2017-02-09T09:24:32.569Z,1020.33
2017-02-09T09:25:32.544Z,1020.36
2017-02-09T09:26:32.522Z,1020.36
2017-02-09T09:27:32.498Z,1020.35
2017-02-09T09:28:32.476Z,1020.33
2017-02-09T09:29:32.453Z,1020.3
2017-02-09T09:30:32.431Z,1020.28
2017-02-09T09:31:32.407Z,1020.31
2017-02-09T09:32:32.383Z,1020.33
2017-02-09T09:33:32.363Z,1020.26
2017-02-09T09:34:32.341Z,1020.29
2017-02-09T09:35:32.316Z,1020.31
2017-02-09T09:36:32.292Z,1020.28
2017-02-09T09:37:32.270Z,1020.33
2017-02-09T09:38:32.248Z,1020.28
2017-02-09T09:39:32.226Z,1020.34
2017-02-09T09:40:32.203Z,1020.28
2017-02-09T09:41:32.181Z,1020.31
2017-02-09T09:42:32.159Z,1020.38
2017-02-09T09:43:32.136Z,1020.38
2017-02-09T09:44:32.113Z,1020.37
2017-02-09T09:45:32.092Z,1020.33
2017-02-09T09:46:32.069Z,1020.39
2017-02-09T09:47:32.047Z,1020.38
2017-02-09T09:48:32.023Z,1020.37
2017-02-09T09:49:32.002Z,1020.36
2017-02-09T09:50:31.981Z,1020.4
2017-02-09T09:51:31.958Z,1020.46
2017-02-09T09:52:31.936Z,1020.34
2017-02-09T09:53:31.914Z,1020.41
2017-02-09T09:54:31.891Z,1020.35
2017-02-09T09:55:31.869Z,1020.37
2017-02-09T09:56:31.857Z,1020.33
2017-02-09T09:57:31.827Z,1020.4
2017-02-09T09:58:31.802Z,1020.39
2017-02-09T09:59:31.780Z,1020.36
2017-02-09T10:00:31.760Z,1020.33
2017-02-09T10:01:31.735Z,1020.31
2017-02-09T10:02:31.715Z,1020.34
2017-02-09T10:03:31.694Z,1020.31
2017-02-09T10:04:31.671Z,1020.32
2017-02-09T10:05:31.647Z,1020.35
2017-02-09T10:06:31.625Z,1020.32
2017-02-09T10:07:31.605Z,1020.29
2017-02-09T10:08:31.581Z,1020.3
2017-02-09T10:09:31.568Z,1020.28
2017-02-09T10:10:31.543Z,1020.33
2017-02-09T10:11:31.517Z,1020.34
2017-02-09T10:12:31.497Z,1020.36
2017-02-09T10:13:31.473Z,1020.32
2017-02-09T10:14:31.453Z,1020.3
2017-02-09T10:15:31.431Z,1020.35
2017-02-09T10:16:31.408Z,1020.37
2017-02-09T10:17:31.389Z,1020.36
2017-02-09T10:18:31.370Z,1020.32
2017-02-09T10:19:31.546Z,1020.35
2017-02-09T10:20:31.323Z,1020.36
2017-02-09T10:21:31.299Z,1020.33
2017-02-09T10:22:31.277Z,1020.33
2017-02-09T10:23:31.256Z,1020.33
2017-02-09T10:24:31.236Z,1020.32
2017-02-09T10:25:31.215Z,1020.34
2017-02-09T10:26:31.192Z,1020.37
2017-02-09T10:27:31.170Z,1020.31
2017-02-09T10:28:31.149Z,1020.37
2017-02-09T10:29:31.130Z,1020.4
2017-02-09T10:30:31.130Z,1020.4
2017-02-09T10:31:31.085Z,1020.44
2017-02-09T10:32:31.070Z,1020.43
2017-02-09T10:33:31.041Z,1020.42
2017-02-09T10:34:31.023Z,1020.45
2017-02-09T10:35:31.000Z,1020.42
2017-02-09T10:36:30.982Z,1020.43
2017-02-09T10:37:30.960Z,1020.41
2017-02-09T10:38:30.936Z,1020.39
2017-02-09T10:39:30.916Z,1020.42
2017-02-09T10:40:30.896Z,1020.42
2017-02-09T10:41:30.873Z,1020.44
2017-02-09T10:42:30.851Z,1020.41
2017-02-09T10:43:30.865Z,1020.36
2017-02-09T10:44:30.809Z,1020.39
2017-02-09T10:45:30.790Z,1020.31
2017-02-09T10:46:30.767Z,1020.32
2017-02-09T10:47:30.768Z,1020.29
2017-02-09T10:48:30.726Z,1020.33
2017-02-09T10:49:30.707Z,1020.32
2017-02-09T10:50:30.687Z,1020.35
2017-02-09T10:51:30.663Z,1020.37
2017-02-09T10:52:30.644Z,1020.34
2017-02-09T10:53:30.622Z,1020.33
2017-02-09T10:54:30.601Z,1020.32
2017-02-09T10:55:30.589Z,1020.29
2017-02-09T10:56:30.560Z,1020.32
2017-02-09T10:57:30.541Z,1020.26
2017-02-09T10:58:30.519Z,1020.26
2017-02-09T10:59:30.498Z,1020.22
2017-02-09T11:00:30.477Z,1020.2
2017-02-09T11:01:30.459Z,1020.23
2017-02-09T11:02:30.438Z,1020.27
2017-02-09T11:03:30.418Z,1020.26
2017-02-09T11:04:30.395Z,1020.27
2017-02-09T11:05:30.376Z,1020.23
2017-02-09T11:06:30.354Z,1020.24
2017-02-09T11:07:30.335Z,1020.27
2017-02-09T11:08:30.314Z,1020.3
2017-02-09T11:09:30.299Z,1020.28
2017-02-09T11:10:30.277Z,1020.27
2017-02-09T11:11:30.255Z,1020.29
2017-02-09T11:12:30.236Z,1020.31
2017-02-09T11:13:30.217Z,1020.3
2017-02-09T11:14:30.197Z,1020.25
2017-02-09T11:15:30.177Z,1020.25
2017-02-09T11:16:30.158Z,1020.27
2017-02-09T11:17:30.138Z,1020.23
2017-02-09T11:18:30.120Z,1020.24
2017-02-09T11:19:30.099Z,1020.21
2017-02-09T11:20:30.081Z,1020.26
2017-02-09T11:21:30.060Z,1020.23
2017-02-09T11:22:30.040Z,1020.21
2017-02-09T11:23:30.021Z,1020.23
2017-02-09T11:24:30.003Z,1020.17
2017-02-09T11:25:29.981Z,1020.13
2017-02-09T11:26:29.962Z,1020.1
2017-02-09T11:27:29.943Z,1020.13
2017-02-09T11:28:29.923Z,1020.14
2017-02-09T11:29:29.903Z,1020.13
2017-02-09T11:30:29.885Z,1020.12
2017-02-09T11:31:29.863Z,1020.11
2017-02-09T11:32:29.844Z,1020.05
2017-02-09T11:33:29.825Z,1020.05
2017-02-09T11:34:29.806Z,1020.04
2017-02-09T11:35:29.787Z,1020.05
2017-02-09T11:36:29.766Z,1020.02
2017-02-09T11:37:29.746Z,1020.03
2017-02-09T11:38:29.730Z,1019.97
2017-02-09T11:39:29.711Z,1020.03
2017-02-09T11:40:29.688Z,1020.05
2017-02-09T11:41:29.670Z,1020.05
2017-02-09T11:42:29.652Z,1020.02
2017-02-09T11:43:29.628Z,1020
2017-02-09T11:44:29.610Z,1019.95
2017-02-09T11:45:29.591Z,1019.97
2017-02-09T11:46:29.606Z,1019.97
2017-02-09T11:47:29.553Z,1019.96
2017-02-09T11:48:29.535Z,1019.93
2017-02-09T11:49:29.517Z,1019.94
2017-02-09T11:50:29.494Z,1019.96
2017-02-09T11:51:29.476Z,1019.95
2017-02-09T11:52:29.457Z,1019.94
2017-02-09T11:53:29.435Z,1019.93
2017-02-09T11:54:29.415Z,1019.94
2017-02-09T11:55:29.396Z,1019.89
2017-02-09T11:56:29.377Z,1019.89
2017-02-09T11:57:29.357Z,1019.88
2017-02-09T11:58:29.338Z,1019.85
2017-02-09T11:59:29.325Z,1019.88
2017-02-09T12:00:29.299Z,1019.85
2017-02-09T12:01:29.282Z,1019.83
2017-02-09T12:02:29.260Z,1019.87
2017-02-09T12:03:29.244Z,1019.78
2017-02-09T12:04:29.225Z,1019.8
2017-02-09T12:05:29.203Z,1019.78
2017-02-09T12:06:29.186Z,1019.81
2017-02-09T12:07:29.166Z,1019.81
2017-02-09T12:08:29.145Z,1019.8